EPWAEPRZ

Guest
Details From EPWA - WARSZAWA Okecie
To EPRZ - JASIONKA
Flight Number -
Tags decoded
Created
Modified
Stats Distance 1,635 nm / 3,027 km
Max Altitude 0 ft / 0 m
Waypoints 3
Social Downloads 0
Likes 0
Share VATSIM

Download

Looking for another format? Having issues loading an existing format? Contact us
Advertisement - Login to hide

Notes

Requested: EPWA BROWS TRM LRAIN EPRZ

Route

EPWA TRM EPRZ

ID Type Via Altitude Latitude Longitude Leg Dist Tot Dist Heading (true) Name
O EPWA APT - 0 ft / 0 m 52.16509˚ 20.96692˚ - 0 nm - WARSZAWA Okecie
TRM VOR - 0 ft / 0 m 63.52587˚ 10.89007˚ 752 nm 752 nm 339° / 330° TRONDHEIM VOR-DME
O EPRZ APT - 0 ft / 0 m 50.10761˚ 22.03610˚ 882 nm 1634 nm 151° / 160° JASIONKA

Altitude Profile

Advertisement - Login to hide

Weather


0- 5 10 15 20 25 30 35+ Temperature / ° C

Clouds and Precipitation
Forecast for 2017-12-12 00:00 UTC. Updated 8 minutes ago

Ground ~20,000 ft ~40,000 ft Winds

EPWA

Details ICAO EPWA (WAW)
Name WARSZAWA Okecie
Region Poland
Timezone Europe/Warsaw (UTC+1.0)
Stats Elevation 328 ft / 100 m (AMSL)
Location 52.165091° 20.966923°
Runways 2
Magnetic Variation 5.800° E

METAR

EPWA 111900Z 13010KT CAVOK 04/01 Q0994 R11/2///95 NOSIG

Decode

TAF

TAF EPWA 111730Z 1118/1218 15010KT CAVOK BECMG 1206/1209 24014KT TEMPO 1209/1215 25018G33KT TEMPO 1215/1218 25015G25KT

Decode

Departure Runways

ID Width Length Bearing (true) Bearing (mag) Surface Threshold Offset Overrun Length
11 164 ft / 50 m 9,163 ft / 2,793 m 114.64° 108.84° Asphalt 0 ft / 0 m 476 ft / 145 m
15 197 ft / 60 m 12,112 ft / 3,692 m 151.85° 146.05° Asphalt 0 ft / 0 m 0 ft / 0 m
29 164 ft / 50 m 9,163 ft / 2,793 m 294.67° 288.87° Asphalt 1,608 ft / 490 m 0 ft / 0 m
33 197 ft / 60 m 12,112 ft / 3,692 m 331.87° 326.07° Asphalt 0 ft / 0 m 0 ft / 0 m

EPRZ

Details ICAO EPRZ (RZE)
Name JASIONKA
Region Poland
Timezone Europe/Warsaw (UTC+1.0)
Stats Elevation 675 ft / 206 m (AMSL)
Location 50.107614° 22.036096°
Runways 2
Magnetic Variation 5.723° E

METAR

EPRZ 111900Z 18012G24KT CAVOK 07/03 Q0998

Decode

TAF

TAF EPRZ 111730Z 1118/1218 19020KT CAVOK TEMPO 1118/1209 19030G45KT TEMPO 1209/1212 19020G30KT TEMPO 1212/1215 25010KT

Decode

Destination Runways

ID Width Length Bearing (true) Bearing (mag) Surface Threshold Offset Overrun Length
08 1,050 ft / 320 m 2,709 ft / 826 m 80.74° 75.02° Grass 0 ft / 0 m 0 ft / 0 m
09 148 ft / 45 m 10,469 ft / 3,191 m 91.16° 85.44° Concrete 0 ft / 0 m 0 ft / 0 m
26 1,050 ft / 320 m 2,709 ft / 826 m 260.74° 255.02° Grass 0 ft / 0 m 0 ft / 0 m
27 148 ft / 45 m 10,469 ft / 3,191 m 271.20° 265.48° Concrete 2,297 ft / 700 m 0 ft / 0 m

Approach Navaids

Runway Type Ident Frequency Range Bearing (true) Bearing (mag) Slope Elevation
27 Localiser RZW 110.30 MHz 18 nm / 33 km 271.15° 265.43° - 675 ft / 206 m (AMSL)
27 Glidescope RZW 110.30 MHz 10 nm / 19 km 271.18° 265.46° 2.90° 675 ft / 206 m (AMSL)
27 DME RZW 110.30 MHz 18 nm / 33 km - - - 787 ft / 240 m (AMSL)

Popular Alternatives